createdAt,value
2018-04-14T00:01:26.516Z,5.30
2018-04-14T00:03:58.816Z,5.20
2018-04-14T00:06:28.949Z,5.20
2018-04-14T00:09:01.904Z,5.20
2018-04-14T00:11:33.016Z,5.20
2018-04-14T00:14:03.404Z,5.20
2018-04-14T00:16:34.356Z,5.20
2018-04-14T00:19:06.622Z,5.10
2018-04-14T00:21:38.296Z,5.20
2018-04-14T00:24:08.424Z,5.00
2018-04-14T00:26:39.753Z,5.00
2018-04-14T00:29:10.199Z,5.00
2018-04-14T00:31:41.511Z,4.90
2018-04-14T00:34:13.839Z,4.90
2018-04-14T00:36:47.906Z,4.90
2018-04-14T00:39:17.789Z,4.90
2018-04-14T00:41:47.872Z,5.00
2018-04-14T00:44:18.315Z,5.00
2018-04-14T00:46:50.377Z,5.00
2018-04-14T00:49:20.502Z,5.10
2018-04-14T00:51:53.073Z,5.00
2018-04-14T00:54:22.989Z,4.90
2018-04-14T00:56:53.652Z,4.80
2018-04-14T00:59:24.418Z,4.80
2018-04-14T01:01:55.120Z,4.90
2018-04-14T01:04:25.373Z,5.00
2018-04-14T01:06:55.769Z,5.00
2018-04-14T01:09:26.932Z,5.00
2018-04-14T01:11:59.009Z,5.00
2018-04-14T01:14:29.425Z,4.80
2018-04-14T01:17:02.153Z,4.80
2018-04-14T01:19:32.976Z,4.60
2018-04-14T01:22:04.765Z,4.60
2018-04-14T01:24:40.694Z,4.70
2018-04-14T01:27:10.924Z,4.70
2018-04-14T01:29:41.765Z,4.80
2018-04-14T01:32:13.101Z,4.80
2018-04-14T01:34:43.226Z,4.90
2018-04-14T01:37:13.936Z,5.10
2018-04-14T01:39:46.774Z,5.20
2018-04-14T01:42:16.886Z,5.10
2018-04-14T01:44:51.803Z,5.10
2018-04-14T01:47:22.168Z,5.10
2018-04-14T01:49:52.401Z,5.10
2018-04-14T01:52:23.680Z,5.10
2018-04-14T01:54:54.179Z,5.10
2018-04-14T01:57:24.589Z,5.20
2018-04-14T01:59:58.273Z,5.10
2018-04-14T02:02:28.137Z,5.00
2018-04-14T02:04:58.796Z,4.90
2018-04-14T02:07:29.793Z,4.70
2018-04-14T02:10:01.398Z,4.70
2018-04-14T02:12:32.993Z,4.70
2018-04-14T02:15:02.860Z,4.70
2018-04-14T02:17:34.405Z,4.80
2018-04-14T02:20:05.775Z,4.70
2018-04-14T02:22:36.704Z,4.70
2018-04-14T02:25:07.008Z,4.60
2018-04-14T02:27:37.309Z,4.50
2018-04-14T02:30:07.092Z,4.50
2018-04-14T02:32:41.228Z,4.50
2018-04-14T02:35:15.449Z,4.50
2018-04-14T02:37:48.667Z,4.50
2018-04-14T02:40:19.094Z,4.60
2018-04-14T02:42:51.935Z,4.60
2018-04-14T02:45:22.139Z,4.60
2018-04-14T02:47:52.934Z,4.70
2018-04-14T02:50:26.892Z,4.60
2018-04-14T02:52:57.309Z,4.70
2018-04-14T02:55:27.733Z,4.70
2018-04-14T02:57:57.884Z,4.80
2018-04-14T03:00:30.329Z,5.00
2018-04-14T03:03:01.471Z,5.00
2018-04-14T03:05:32.231Z,5.10
2018-04-14T03:08:02.961Z,5.10
2018-04-14T03:10:33.181Z,5.00
2018-04-14T03:13:04.172Z,5.00
2018-04-14T03:15:36.224Z,5.00
2018-04-14T03:18:06.781Z,5.00
2018-04-14T03:20:37.701Z,5.00
2018-04-14T03:23:11.940Z,5.00
2018-04-14T03:25:45.696Z,5.00
2018-04-14T03:28:16.741Z,4.90
2018-04-14T03:30:49.478Z,4.80
2018-04-14T03:33:23.395Z,4.80
2018-04-14T03:35:53.195Z,4.70
2018-04-14T03:38:29.810Z,4.80
2018-04-14T03:41:05.087Z,4.70
2018-04-14T03:43:39.254Z,4.70
2018-04-14T03:46:11.382Z,4.80
2018-04-14T03:48:41.758Z,4.80
2018-04-14T03:51:13.041Z,4.70
2018-04-14T03:53:43.164Z,4.80
2018-04-14T03:56:13.263Z,4.80
2018-04-14T03:58:43.523Z,4.70
2018-04-14T04:01:22.629Z,4.80
2018-04-14T04:03:56.191Z,4.90
2018-04-14T04:06:28.652Z,4.90
2018-04-14T04:08:59.644Z,4.90
2018-04-14T04:11:29.717Z,4.90
2018-04-14T04:14:00.294Z,4.90
2018-04-14T04:16:31.017Z,4.90
2018-04-14T04:19:17.952Z,5.00
2018-04-14T04:22:05.003Z,5.00
2018-04-14T04:25:00.920Z,5.10
2018-04-14T04:27:31.021Z,5.10
2018-04-14T04:30:01.110Z,5.20
2018-04-14T04:32:33.654Z,5.20
2018-04-14T04:35:06.172Z,5.30
2018-04-14T04:37:38.270Z,5.40
2018-04-14T04:40:09.789Z,5.50
2018-04-14T04:42:43.294Z,5.50
2018-04-14T04:45:13.461Z,5.60
2018-04-14T04:47:43.929Z,5.60
2018-04-14T04:50:14.303Z,5.70
2018-04-14T04:52:44.099Z,5.60
2018-04-14T04:55:18.409Z,5.60
2018-04-14T04:57:49.961Z,5.50
2018-04-14T05:00:22.438Z,5.50
2018-04-14T05:02:52.866Z,5.50
2018-04-14T05:05:25.076Z,5.50
2018-04-14T05:07:56.248Z,5.80
2018-04-14T05:10:28.874Z,5.80
2018-04-14T05:13:02.671Z,5.90
2018-04-14T05:15:33.061Z,6.10
2018-04-14T05:18:03.093Z,6.20
2018-04-14T05:20:33.574Z,6.30
2018-04-14T05:23:06.421Z,6.40
2018-04-14T05:25:36.921Z,6.40
2018-04-14T05:28:06.803Z,6.50
2018-04-14T05:30:37.073Z,6.60
2018-04-14T05:33:08.172Z,6.60
2018-04-14T05:35:38.475Z,6.60
2018-04-14T05:38:09.331Z,6.60
2018-04-14T05:40:39.468Z,6.70
2018-04-14T05:43:09.590Z,6.70
2018-04-14T05:45:40.069Z,6.90
2018-04-14T05:48:10.239Z,7.00
2018-04-14T05:50:40.324Z,7.10
2018-04-14T05:53:10.619Z,7.40
2018-04-14T05:55:40.771Z,7.70
2018-04-14T05:58:11.000Z,7.90
2018-04-14T06:00:41.107Z,8.20
2018-04-14T06:03:11.215Z,8.50
2018-04-14T06:05:41.359Z,9.00
2018-04-14T06:08:11.462Z,9.60
2018-04-14T06:10:41.345Z,10.30
2018-04-14T06:13:11.626Z,10.90
2018-04-14T06:15:41.851Z,11.50
2018-04-14T06:18:12.016Z,11.80
2018-04-14T06:20:43.084Z,11.90
2018-04-14T06:23:13.946Z,12.00
2018-04-14T06:25:45.510Z,12.30
2018-04-14T06:28:15.606Z,12.30
2018-04-14T06:30:45.914Z,12.70
2018-04-14T06:33:16.443Z,13.00
2018-04-14T06:35:46.546Z,13.10
2018-04-14T06:38:16.655Z,13.50
2018-04-14T06:40:47.561Z,14.10
2018-04-14T06:43:17.653Z,14.00
2018-04-14T06:45:48.527Z,14.40
2018-04-14T06:48:19.398Z,14.60
2018-04-14T06:50:50.263Z,15.10
2018-04-14T06:53:21.238Z,15.00
2018-04-14T06:55:52.128Z,15.50
2018-04-14T06:58:22.953Z,16.30
2018-04-14T07:00:53.923Z,16.80
2018-04-14T07:03:24.577Z,16.70
2018-04-14T07:05:55.244Z,16.60
2018-04-14T07:08:25.898Z,16.70
2018-04-14T07:10:56.610Z,16.90
2018-04-14T07:13:27.264Z,17.10
2018-04-14T07:15:57.882Z,17.00
2018-04-14T07:18:28.791Z,17.00
2018-04-14T07:20:59.436Z,16.70
2018-04-14T07:23:30.559Z,16.80
2018-04-14T07:26:01.195Z,17.20
2018-04-14T07:28:31.776Z,17.00
2018-04-14T07:31:02.413Z,16.90
2018-04-14T07:33:33.283Z,17.10
2018-04-14T07:36:03.933Z,17.40
2018-04-14T07:38:35.333Z,18.00
2018-04-14T07:41:05.972Z,18.20
2018-04-14T07:43:36.625Z,18.00
2018-04-14T07:46:07.342Z,17.80
2018-04-14T07:48:38.713Z,17.80
2018-04-14T07:51:10.318Z,17.70
2018-04-14T07:53:40.983Z,17.60
2018-04-14T07:56:11.612Z,17.70
2018-04-14T07:58:42.463Z,17.50
2018-04-14T08:01:13.382Z,17.60
2018-04-14T08:03:44.508Z,18.00
2018-04-14T08:06:15.908Z,18.30
2018-04-14T08:08:47.497Z,19.00
2018-04-14T08:11:18.161Z,18.90
2018-04-14T08:13:48.798Z,18.80
2018-04-14T08:16:19.646Z,18.70
2018-04-14T08:18:50.479Z,18.50
2018-04-14T08:21:21.341Z,18.50
2018-04-14T08:23:52.732Z,18.60
2018-04-14T08:26:23.136Z,18.60
2018-04-14T08:28:54.000Z,18.90
2018-04-14T08:31:24.790Z,18.60
2018-04-14T08:33:56.127Z,18.40
2018-04-14T08:36:26.785Z,18.30
2018-04-14T08:38:58.659Z,18.40
2018-04-14T08:41:29.317Z,18.40
2018-04-14T08:43:59.949Z,18.70
2018-04-14T08:46:30.563Z,19.00
2018-04-14T08:49:01.217Z,18.60
2018-04-14T08:51:31.841Z,18.40
2018-04-14T08:54:02.499Z,19.10
2018-04-14T08:56:33.329Z,19.60
2018-04-14T08:59:04.171Z,19.30
2018-04-14T09:01:35.597Z,19.70
2018-04-14T09:04:06.416Z,19.70
2018-04-14T09:06:37.816Z,20.10
2018-04-14T09:09:09.472Z,20.10
2018-04-14T09:11:40.074Z,20.10
2018-04-14T09:14:12.459Z,19.90
2018-04-14T09:16:43.287Z,19.60
2018-04-14T09:19:14.720Z,19.90
2018-04-14T09:21:45.574Z,20.00
2018-04-14T09:24:16.225Z,20.50
2018-04-14T09:26:46.864Z,20.50
2018-04-14T09:29:17.529Z,20.70
2018-04-14T09:31:48.189Z,21.30
2018-04-14T09:34:18.822Z,21.60
2018-04-14T10:18:47.552Z,18.90
2018-04-14T15:55:36.865Z,19.00
2018-04-14T16:11:06.468Z,17.30
2018-04-14T17:45:11.687Z,14.10
2018-04-14T17:54:07.852Z,13.20
2018-04-14T17:56:45.366Z,12.90
2018-04-14T18:05:37.189Z,12.00
2018-04-14T18:08:31.375Z,11.60
2018-04-14T18:11:01.716Z,11.40
2018-04-14T18:13:31.965Z,11.20
2018-04-14T18:16:27.222Z,11.00
2018-04-14T18:19:20.129Z,10.80
2018-04-14T18:22:08.560Z,10.50
2018-04-14T18:25:03.635Z,10.40
2018-04-14T18:27:50.583Z,10.30
2018-04-14T18:30:36.704Z,10.20
2018-04-14T18:33:09.008Z,10.00
2018-04-14T18:35:50.495Z,9.90
2018-04-14T18:54:44.362Z,9.50
2018-04-14T18:57:51.182Z,9.50
2018-04-14T19:00:21.267Z,9.50
2018-04-14T19:02:51.977Z,9.50
2018-04-14T19:05:22.127Z,9.50
2018-04-14T19:07:52.263Z,9.50
2018-04-14T19:10:22.486Z,9.50
2018-04-14T19:12:53.676Z,9.50
2018-04-14T19:15:25.980Z,9.50
2018-04-14T19:18:07.978Z,9.50
2018-04-14T19:27:16.667Z,9.50
2018-04-14T19:32:53.962Z,9.70
2018-04-14T19:35:27.752Z,9.80
2018-04-14T19:38:06.398Z,9.90
2018-04-14T19:40:36.782Z,9.90
2018-04-14T19:43:06.891Z,9.90
2018-04-14T19:45:37.960Z,9.90
2018-04-14T19:48:30.572Z,9.90
2018-04-14T19:51:27.532Z,9.90
2018-04-14T19:53:57.713Z,9.90
2018-04-14T19:56:29.038Z,9.90
2018-04-14T20:05:26.659Z,9.90
2018-04-14T20:08:15.805Z,9.80
2018-04-14T20:10:46.432Z,9.80
2018-04-14T20:13:26.555Z,10.00
2018-04-14T20:15:57.568Z,10.00
2018-04-14T20:18:28.683Z,10.00
2018-04-14T20:21:06.718Z,10.10
2018-04-14T20:23:38.084Z,10.10
2018-04-14T20:26:08.244Z,10.00
2018-04-14T20:28:39.023Z,10.00
2018-04-14T20:31:09.465Z,10.10
2018-04-14T20:33:41.226Z,9.80
2018-04-14T20:36:13.029Z,9.70
2018-04-14T20:38:43.817Z,9.50
2018-04-14T20:41:15.674Z,9.50
2018-04-14T20:44:05.003Z,9.40
2018-04-14T20:46:53.615Z,9.30
2018-04-14T20:49:24.592Z,9.30
2018-04-14T20:51:54.821Z,9.30
2018-04-14T20:54:26.076Z,9.30
2018-04-14T20:56:58.365Z,9.40
2018-04-14T21:02:46.240Z,9.40
2018-04-14T21:05:16.732Z,9.30
2018-04-14T21:07:47.948Z,9.30
2018-04-14T21:10:19.185Z,9.20
2018-04-14T21:15:59.277Z,9.20
2018-04-14T21:18:29.380Z,9.20
2018-04-14T21:21:01.209Z,9.20
2018-04-14T21:23:32.696Z,9.20
2018-04-14T21:34:37.593Z,9.20
2018-04-14T21:40:20.241Z,9.00
2018-04-14T21:42:52.178Z,8.90
2018-04-14T21:54:44.361Z,9.00
2018-04-14T21:57:14.853Z,9.00
2018-04-14T21:59:45.266Z,9.00
2018-04-14T22:21:19.876Z,8.20
2018-04-14T22:23:58.160Z,8.20
2018-04-14T22:26:28.240Z,8.10
2018-04-14T22:28:59.296Z,8.10
2018-04-14T22:31:33.827Z,8.10
2018-04-14T22:55:55.757Z,8.60
2018-04-14T22:58:38.892Z,8.70
2018-04-14T23:01:09.360Z,8.60
2018-04-14T23:03:41.038Z,8.60
2018-04-14T23:24:26.832Z,8.70
2018-04-14T23:30:08.858Z,9.00
2018-04-14T23:33:05.293Z,9.00
2018-04-14T23:36:00.032Z,9.00
2018-04-14T23:38:31.058Z,9.00
2018-04-14T23:41:01.472Z,9.00
2018-04-14T23:52:23.135Z,8.80
2018-04-14T23:54:54.660Z,8.60
2018-04-14T23:57:25.135Z,8.60
